Time;durP1;ratioP1;P1;durP2;ratioP2;P2;SDS_P1;SDS_P2;PMS_P1;PMS_P2;Temp;Humidity;BMP_temperature;BMP_pressure;BME280_temperature;BME280_humidity;BME280_pressure;Samples;Min_cycle;Max_cycle;Signal;HPM_P1;HPM_P2
2023/06/09 00:01:11;;;;;;;5.68;3.90;;;;;;;;;;5074588;28;20437;-64
2023/06/09 00:03:39;;;;;;;6.32;3.95;;;;;;;;;;5074799;28;20044;-63
2023/06/09 00:06:08;;;;;;;8.27;4.13;;;;;;;;;;5074291;28;20052;-64
2023/06/09 00:08:36;;;;;;;4.63;3.70;;;;;;;;;;5073674;28;20135;-64
2023/06/09 00:11:02;;;;;;;6.22;4.00;;;;;;;;;;5072747;28;20064;-63
2023/06/09 00:13:29;;;;;;;6.27;3.87;;;;;;;;;;5073260;28;20060;-64
2023/06/09 00:15:55;;;;;;;4.75;3.90;;;;;;;;;;5073807;28;20048;-64
2023/06/09 00:18:25;;;;;;;9.98;4.78;;;;;;;;;;5073800;28;20044;-64
2023/06/09 00:20:52;;;;;;;6.28;4.35;;;;;;;;;;5073861;28;20044;-64
2023/06/09 00:23:19;;;;;;;8.02;4.07;;;;;;;;;;5072705;28;20118;-63
2023/06/09 00:25:45;;;;;;;9.05;4.15;;;;;;;;;;5073961;28;20064;-64
2023/06/09 00:28:12;;;;;;;9.40;3.97;;;;;;;;;;5070656;28;20053;-64
2023/06/09 00:30:38;;;;;;;6.57;4.47;;;;;;;;;;5060264;28;20126;-63
2023/06/09 00:33:06;;;;;;;6.18;4.20;;;;;;;;;;5072427;28;20061;-64
2023/06/09 00:35:33;;;;;;;7.27;4.60;;;;;;;;;;5073824;28;20504;-64
2023/06/09 00:38:00;;;;;;;8.98;4.53;;;;;;;;;;5073772;28;20040;-64
2023/06/09 00:40:26;;;;;;;7.35;4.20;;;;;;;;;;5074081;28;20044;-64
2023/06/09 00:42:53;;;;;;;8.85;4.30;;;;;;;;;;5073510;28;20054;-64
2023/06/09 00:45:19;;;;;;;6.80;4.35;;;;;;;;;;5073800;28;20052;-63
2023/06/09 00:47:46;;;;;;;6.50;4.00;;;;;;;;;;5073740;28;20068;-63
2023/06/09 00:50:15;;;;;;;7.17;4.23;;;;;;;;;;5073942;28;20106;-64
2023/06/09 00:52:42;;;;;;;6.05;3.72;;;;;;;;;;5074136;28;20131;-64
2023/06/09 00:55:09;;;;;;;9.27;4.20;;;;;;;;;;5073667;28;20401;-63
2023/06/09 00:57:36;;;;;;;6.32;4.40;;;;;;;;;;5073499;28;20416;-63
2023/06/09 01:00:06;;;;;;;7.95;4.13;;;;;;;;;;5073475;28;20094;-63
2023/06/09 01:02:32;;;;;;;7.88;4.40;;;;;;;;;;5073477;28;20052;-63
2023/06/09 01:05:00;;;;;;;8.77;4.20;;;;;;;;;;5073264;28;20575;-64
2023/06/09 01:07:42;;;;;;;5.13;3.95;;;;;;;;;;5073432;28;20056;-64
2023/06/09 01:10:18;;;;;;;8.98;4.10;;;;;;;;;;5073315;28;20093;-64
2023/06/09 01:13:08;;;;;;;7.07;4.43;;;;;;;;;;5073223;28;20052;-63
2023/06/09 01:15:38;;;;;;;7.38;4.35;;;;;;;;;;5026553;28;20051;-64
2023/06/09 01:18:08;;;;;;;6.93;4.15;;;;;;;;;;5073422;28;20098;-63
2023/06/09 01:20:45;;;;;;;6.95;4.28;;;;;;;;;;5073031;28;20091;-64
2023/06/09 01:23:30;;;;;;;5.60;4.43;;;;;;;;;;5073303;28;20110;-63
2023/06/09 01:25:59;;;;;;;6.63;4.30;;;;;;;;;;5072904;28;20493;-63
2023/06/09 01:28:26;;;;;;;6.32;4.28;;;;;;;;;;5073137;28;20048;-63
2023/06/09 01:30:54;;;;;;;8.18;4.07;;;;;;;;;;5073023;28;20403;-63
2023/06/09 01:33:22;;;;;;;6.63;4.20;;;;;;;;;;5073060;28;20117;-63
2023/06/09 01:35:49;;;;;;;5.60;4.00;;;;;;;;;;5072340;28;20049;-64
2023/06/09 01:38:17;;;;;;;6.35;4.78;;;;;;;;;;5072939;28;20054;-63
2023/06/09 01:40:44;;;;;;;7.30;4.13;;;;;;;;;;5072609;28;20113;-63
2023/06/09 01:43:11;;;;;;;4.60;4.03;;;;;;;;;;5072644;28;20064;-63
2023/06/09 01:45:37;;;;;;;6.45;4.35;;;;;;;;;;5072781;28;20048;-63
2023/06/09 01:48:27;;;;;;;8.57;4.43;;;;;;;;;;5072641;28;20041;-64
2023/06/09 01:51:01;;;;;;;6.70;4.40;;;;;;;;;;5059762;28;20048;-64
2023/06/09 01:53:30;;;;;;;9.50;4.65;;;;;;;;;;5072369;28;20532;-63
2023/06/09 01:56:09;;;;;;;6.43;4.07;;;;;;;;;;5072389;28;20056;-64
2023/06/09 01:58:46;;;;;;;8.50;4.45;;;;;;;;;;5072571;28;20071;-63
2023/06/09 02:01:15;;;;;;;7.25;4.25;;;;;;;;;;5072620;28;20404;-63
2023/06/09 02:03:42;;;;;;;8.68;4.80;;;;;;;;;;5068511;28;20041;-63
2023/06/09 02:06:09;;;;;;;;;;;;;;;;;;5070206;28;20050;-63
2023/06/09 02:08:37;;;;;;;7.90;5.00;;;;;;;;;;5072084;28;19924;-63
2023/06/09 02:11:03;;;;;;;5.50;4.30;;;;;;;;;;5072118;28;20051;-63
2023/06/09 02:13:30;;;;;;;9.30;4.73;;;;;;;;;;5072228;28;20458;-63
2023/06/09 02:15:56;;;;;;;7.22;5.35;;;;;;;;;;5072041;28;20416;-63
2023/06/09 02:18:24;;;;;;;6.03;4.78;;;;;;;;;;5072510;28;20052;-63
2023/06/09 02:20:51;;;;;;;9.02;4.88;;;;;;;;;;5072426;28;20048;-63
2023/06/09 02:23:18;;;;;;;6.82;5.30;;;;;;;;;;5071925;28;20048;-63
2023/06/09 02:25:45;;;;;;;7.15;5.50;;;;;;;;;;5071838;28;20052;-63
2023/06/09 02:28:12;;;;;;;7.78;5.13;;;;;;;;;;5072021;28;20381;-64
2023/06/09 02:30:38;;;;;;;7.37;5.30;;;;;;;;;;5071978;28;20456;-63
2023/06/09 02:33:05;;;;;;;7.88;5.75;;;;;;;;;;5071673;28;20054;-63
2023/06/09 02:35:32;;;;;;;10.43;6.40;;;;;;;;;;5071736;28;20041;-63
2023/06/09 02:37:58;;;;;;;10.95;6.50;;;;;;;;;;5071449;28;20077;-63
2023/06/09 02:40:27;;;;;;;8.10;5.82;;;;;;;;;;5071624;28;20139;-63
2023/06/09 02:42:54;;;;;;;7.80;6.38;;;;;;;;;;5071721;28;20425;-64
2023/06/09 02:45:20;;;;;;;10.57;6.18;;;;;;;;;;5071650;28;20048;-63
2023/06/09 02:47:47;;;;;;;10.98;6.38;;;;;;;;;;5071158;28;20122;-64
2023/06/09 02:50:14;;;;;;;9.48;6.57;;;;;;;;;;5071471;28;20047;-64
2023/06/09 02:52:42;;;;;;;10.05;6.65;;;;;;;;;;5071436;28;20049;-63
2023/06/09 02:55:08;;;;;;;;;;;;;;;;;;5072081;28;20408;-63
2023/06/09 02:57:35;;;;;;;8.35;5.90;;;;;;;;;;5071411;28;20437;-63
2023/06/09 03:00:04;;;;;;;9.40;6.50;;;;;;;;;;5071577;28;20066;-64
2023/06/09 03:02:30;;;;;;;11.90;6.95;;;;;;;;;;5071714;28;20048;-63
2023/06/09 03:04:57;;;;;;;11.82;6.90;;;;;;;;;;5071477;28;20508;-64
2023/06/09 03:07:23;;;;;;;11.93;7.07;;;;;;;;;;5071606;28;20385;-63
2023/06/09 03:09:49;;;;;;;9.73;7.05;;;;;;;;;;5071479;28;20484;-63
2023/06/09 03:12:16;;;;;;;11.80;6.75;;;;;;;;;;5071405;28;20056;-63
2023/06/09 03:14:42;;;;;;;11.60;7.43;;;;;;;;;;5071624;28;20051;-63
2023/06/09 03:17:09;;;;;;;13.98;8.10;;;;;;;;;;5071514;28;20044;-63
2023/06/09 03:19:35;;;;;;;8.27;6.72;;;;;;;;;;5071306;28;20048;-63
2023/06/09 03:22:03;;;;;;;11.10;7.45;;;;;;;;;;5071350;28;20049;-63
2023/06/09 03:24:30;;;;;;;12.20;6.93;;;;;;;;;;5071113;28;20458;-63
2023/06/09 03:26:57;;;;;;;10.45;7.80;;;;;;;;;;5071514;28;20419;-63
2023/06/09 03:29:23;;;;;;;11.10;6.75;;;;;;;;;;5071447;28;20475;-63
2023/06/09 03:31:50;;;;;;;10.02;7.60;;;;;;;;;;5071457;28;20166;-63
2023/06/09 03:34:16;;;;;;;10.88;7.40;;;;;;;;;;5070995;28;20055;-63
2023/06/09 03:36:42;;;;;;;8.80;6.95;;;;;;;;;;5071345;28;20048;-63
2023/06/09 03:39:09;;;;;;;12.45;7.43;;;;;;;;;;5071425;28;20049;-63
2023/06/09 03:41:35;;;;;;;13.85;8.07;;;;;;;;;;5071258;28;20071;-63
2023/06/09 03:44:02;;;;;;;12.90;7.93;;;;;;;;;;5070905;28;20056;-63
2023/06/09 03:46:28;;;;;;;12.93;7.82;;;;;;;;;;5070998;28;20049;-63
2023/06/09 03:48:55;;;;;;;12.68;8.50;;;;;;;;;;5070963;28;20053;-63
2023/06/09 03:51:21;;;;;;;11.07;8.25;;;;;;;;;;5071205;28;20060;-63
2023/06/09 03:53:48;;;;;;;12.25;8.02;;;;;;;;;;5071315;28;20044;-63
2023/06/09 03:56:14;;;;;;;13.18;7.95;;;;;;;;;;5070856;28;20056;-63
2023/06/09 03:58:41;;;;;;;12.23;7.93;;;;;;;;;;5073880;28;20110;-64
2023/06/09 04:01:10;;;;;;;11.52;8.02;;;;;;;;;;5074642;28;20052;-63
2023/06/09 04:03:37;;;;;;;10.82;8.35;;;;;;;;;;5074417;28;20048;-63
2023/06/09 04:06:04;;;;;;;10.23;8.10;;;;;;;;;;5074813;28;20083;-63
2023/06/09 04:08:31;;;;;;;12.25;8.75;;;;;;;;;;5074652;28;20052;-63
2023/06/09 04:10:58;;;;;;;13.18;8.43;;;;;;;;;;5074648;28;20048;-63
2023/06/09 04:13:24;;;;;;;13.65;8.77;;;;;;;;;;5074697;28;20064;-63
2023/06/09 04:15:51;;;;;;;11.18;8.32;;;;;;;;;;5074284;28;20082;-63
2023/06/09 04:18:19;;;;;;;12.13;8.35;;;;;;;;;;5074448;28;20484;-63
2023/06/09 04:20:45;;;;;;;12.52;8.40;;;;;;;;;;5074484;28;20044;-63
2023/06/09 04:23:11;;;;;;;10.82;8.23;;;;;;;;;;5074298;28;20045;-63
2023/06/09 04:25:39;;;;;;;11.45;8.52;;;;;;;;;;5074624;28;20451;-63
2023/06/09 04:28:06;;;;;;;15.10;8.90;;;;;;;;;;5074306;28;20040;-63
2023/06/09 04:30:34;;;;;;;10.70;8.38;;;;;;;;;;5074182;28;20059;-63
2023/06/09 04:33:04;;;;;;;11.98;8.27;;;;;;;;;;5073984;28;20054;-63
2023/06/09 04:35:31;;;;;;;11.07;8.18;;;;;;;;;;5074282;28;20055;-63
2023/06/09 04:37:59;;;;;;;9.57;8.50;;;;;;;;;;5073793;28;20488;-63
2023/06/09 04:40:29;;;;;;;13.02;8.75;;;;;;;;;;5073988;28;20051;-63
2023/06/09 04:42:57;;;;;;;10.40;8.45;;;;;;;;;;5073629;28;20832;-63
2023/06/09 04:45:34;;;;;;;14.40;7.63;;;;;;;;;;5074120;28;20075;-63
2023/06/09 04:48:01;;;;;;;12.95;7.82;;;;;;;;;;5073736;28;20048;-63
2023/06/09 04:50:33;;;;;;;12.93;9.17;;;;;;;;;;5074056;28;20106;-63
2023/06/09 04:53:03;;;;;;;11.02;7.97;;;;;;;;;;5073854;28;20135;-63
2023/06/09 04:55:30;;;;;;;13.25;8.27;;;;;;;;;;5073570;28;20044;-64
2023/06/09 04:57:57;;;;;;;11.73;8.15;;;;;;;;;;5073773;28;20455;-63
2023/06/09 05:00:26;;;;;;;12.30;8.10;;;;;;;;;;5073528;28;20049;-63
2023/06/09 05:02:53;;;;;;;11.63;8.40;;;;;;;;;;5073707;28;20483;-64
2023/06/09 05:05:20;;;;;;;12.27;8.63;;;;;;;;;;5073343;28;20056;-63
2023/06/09 05:07:47;;;;;;;13.77;8.27;;;;;;;;;;5073451;28;20462;-63
2023/06/09 05:10:13;;;;;;;12.70;8.02;;;;;;;;;;5072918;28;20053;-63
2023/06/09 05:12:40;;;;;;;12.52;8.43;;;;;;;;;;5073708;28;20143;-63
2023/06/09 05:15:07;;;;;;;13.00;8.13;;;;;;;;;;5073261;28;20550;-63
2023/06/09 05:17:34;;;;;;;14.65;9.45;;;;;;;;;;5073307;28;20378;-63
2023/06/09 05:20:00;;;;;;;15.82;8.45;;;;;;;;;;5073193;28;20488;-63
2023/06/09 05:22:27;;;;;;;13.77;8.80;;;;;;;;;;5073068;28;20048;-63
2023/06/09 05:24:54;;;;;;;13.30;8.60;;;;;;;;;;5073258;28;20119;-63
2023/06/09 05:27:20;;;;;;;14.75;8.70;;;;;;;;;;5073339;28;20055;-64
2023/06/09 05:29:47;;;;;;;11.95;8.18;;;;;;;;;;5073194;28;20049;-63
2023/06/09 05:32:13;;;;;;;14.90;9.02;;;;;;;;;;5073076;28;20056;-64
2023/06/09 05:34:40;;;;;;;11.95;8.80;;;;;;;;;;5073031;28;20049;-63
2023/06/09 05:37:06;;;;;;;14.13;8.20;;;;;;;;;;5072901;28;20442;-63
2023/06/09 05:39:33;;;;;;;11.30;8.10;;;;;;;;;;5072967;28;20128;-63
2023/06/09 05:42:00;;;;;;;14.10;8.48;;;;;;;;;;5072715;28;20056;-63
2023/06/09 05:44:28;;;;;;;11.35;8.55;;;;;;;;;;5072507;28;20114;-64
2023/06/09 05:46:55;;;;;;;11.82;7.38;;;;;;;;;;5072965;28;20044;-64
2023/06/09 05:49:21;;;;;;;14.93;9.47;;;;;;;;;;5053181;28;20052;-63
2023/06/09 05:51:48;;;;;;;12.07;7.90;;;;;;;;;;5054210;28;20470;-63
2023/06/09 05:54:14;;;;;;;13.07;7.47;;;;;;;;;;5072848;28;20044;-63
2023/06/09 05:56:42;;;;;;;14.65;8.32;;;;;;;;;;5072555;28;20044;-63
2023/06/09 05:59:09;;;;;;;13.25;7.90;;;;;;;;;;5072334;28;20051;-62
2023/06/09 06:01:36;;;;;;;11.38;7.78;;;;;;;;;;5072642;28;20147;-64
2023/06/09 06:04:03;;;;;;;14.95;8.32;;;;;;;;;;5072277;28;20049;-64
2023/06/09 06:06:30;;;;;;;11.80;7.82;;;;;;;;;;5072066;28;20041;-64
2023/06/09 06:08:56;;;;;;;11.50;7.75;;;;;;;;;;5072221;28;20049;-64
2023/06/09 06:11:24;;;;;;;11.02;7.95;;;;;;;;;;5072443;28;20059;-63
2023/06/09 06:13:50;;;;;;;13.93;8.35;;;;;;;;;;5071977;28;20051;-64
2023/06/09 06:16:17;;;;;;;13.95;7.93;;;;;;;;;;5072129;28;20103;-63
2023/06/09 06:18:44;;;;;;;12.82;7.95;;;;;;;;;;5071975;28;20052;-63
2023/06/09 06:21:11;;;;;;;12.55;8.25;;;;;;;;;;5071325;28;20057;-64
2023/06/09 06:23:38;;;;;;;15.05;8.38;;;;;;;;;;5072058;28;20056;-64
2023/06/09 06:26:05;;;;;;;13.05;7.35;;;;;;;;;;5071846;28;20055;-64
2023/06/09 06:28:31;;;;;;;11.50;7.05;;;;;;;;;;5071998;28;20048;-64
2023/06/09 06:30:58;;;;;;;10.70;7.07;;;;;;;;;;5071935;28;20056;-64
2023/06/09 06:33:29;;;;;;;16.15;7.80;;;;;;;;;;5071698;28;20048;-64
2023/06/09 06:35:56;;;;;;;15.48;8.00;;;;;;;;;;5071737;28;20511;-64
2023/06/09 06:38:22;;;;;;;12.25;7.75;;;;;;;;;;5071719;28;20041;-64
2023/06/09 06:40:50;;;;;;;14.23;7.80;;;;;;;;;;5071964;28;20064;-64
2023/06/09 06:43:16;;;;;;;9.82;7.20;;;;;;;;;;5071611;28;20048;-64
2023/06/09 06:45:43;;;;;;;10.32;7.40;;;;;;;;;;5071825;28;20625;-64
2023/06/09 06:48:09;;;;;;;14.07;7.82;;;;;;;;;;5071585;28;20060;-64
2023/06/09 06:50:37;;;;;;;12.25;7.35;;;;;;;;;;5071579;28;20470;-64
2023/06/09 06:53:03;;;;;;;14.25;7.07;;;;;;;;;;5071661;28;20056;-64
2023/06/09 06:55:30;;;;;;;13.90;7.00;;;;;;;;;;5071721;28;20052;-64
2023/06/09 06:58:00;;;;;;;12.02;6.85;;;;;;;;;;5071763;28;20044;-64
2023/06/09 07:00:27;;;;;;;11.95;7.22;;;;;;;;;;5071779;28;20040;-64
2023/06/09 07:02:54;;;;;;;15.95;7.22;;;;;;;;;;5071556;28;20488;-64
2023/06/09 07:05:21;;;;;;;11.48;6.82;;;;;;;;;;5071659;28;20127;-64
2023/06/09 07:07:47;;;;;;;10.37;6.80;;;;;;;;;;5071597;28;20056;-64
2023/06/09 07:10:14;;;;;;;11.27;7.00;;;;;;;;;;5071428;28;20103;-64
2023/06/09 07:12:41;;;;;;;11.05;7.25;;;;;;;;;;5071656;28;20545;-64
2023/06/09 07:15:08;;;;;;;13.50;6.75;;;;;;;;;;5071344;28;20098;-64
2023/06/09 07:17:34;;;;;;;12.60;6.73;;;;;;;;;;5071494;28;20045;-64
2023/06/09 07:20:01;;;;;;;10.65;6.95;;;;;;;;;;5071592;28;20277;-64
2023/06/09 07:22:28;;;;;;;12.55;6.80;;;;;;;;;;5071600;28;20044;-63
2023/06/09 07:24:54;;;;;;;11.88;6.85;;;;;;;;;;5071453;28;20416;-64
2023/06/09 07:27:21;;;;;;;12.70;6.97;;;;;;;;;;5071501;28;20373;-64
2023/06/09 07:29:48;;;;;;;11.02;6.88;;;;;;;;;;5059799;28;20107;-63
2023/06/09 07:32:14;;;;;;;12.85;7.00;;;;;;;;;;5052031;28;20068;-65
2023/06/09 07:34:42;;;;;;;11.30;7.33;;;;;;;;;;5055350;28;20087;-63
2023/06/09 07:37:09;;;;;;;11.10;6.93;;;;;;;;;;5054752;28;20053;-63
2023/06/09 07:39:36;;;;;;;7.40;6.00;;;;;;;;;;5067924;28;20044;-63
2023/06/09 07:42:03;;;;;;;12.48;6.70;;;;;;;;;;5075073;28;20052;-63
2023/06/09 07:44:29;;;;;;;11.70;6.50;;;;;;;;;;5068411;28;20420;-63
2023/06/09 07:46:56;;;;;;;11.95;6.85;;;;;;;;;;5054128;28;20397;-64
2023/06/09 07:49:22;;;;;;;9.50;6.25;;;;;;;;;;5072006;28;20136;-64
2023/06/09 07:51:49;;;;;;;11.20;6.43;;;;;;;;;;5054504;28;20067;-64
2023/06/09 07:54:16;;;;;;;10.07;5.90;;;;;;;;;;5065103;28;20488;-64
2023/06/09 07:56:48;;;;;;;11.50;6.40;;;;;;;;;;5059427;28;20527;-64
2023/06/09 07:59:18;;;;;;;10.75;5.82;;;;;;;;;;5054409;28;20053;-63
2023/06/09 08:01:45;;;;;;;12.20;6.47;;;;;;;;;;5063789;28;20484;-64
2023/06/09 08:04:11;;;;;;;12.85;6.35;;;;;;;;;;5054921;28;20041;-64
2023/06/09 08:06:39;;;;;;;11.45;6.22;;;;;;;;;;5054748;28;20049;-64
2023/06/09 08:09:05;;;;;;;9.50;6.03;;;;;;;;;;5054679;28;20099;-64
2023/06/09 08:11:32;;;;;;;10.55;6.05;;;;;;;;;;5054377;28;20041;-64
2023/06/09 08:13:58;;;;;;;13.10;6.60;;;;;;;;;;5070648;28;20420;-63
2023/06/09 08:16:25;;;;;;;9.93;5.87;;;;;;;;;;5059449;28;20512;-64
2023/06/09 08:18:51;;;;;;;8.77;5.60;;;;;;;;;;5074299;28;20045;-64
2023/06/09 08:21:18;;;;;;;11.20;6.20;;;;;;;;;;5065588;28;20045;-64
2023/06/09 08:23:45;;;;;;;10.32;5.68;;;;;;;;;;5065637;28;20078;-64
2023/06/09 08:26:11;;;;;;;13.57;5.85;;;;;;;;;;5057668;28;20045;-64
2023/06/09 08:28:38;;;;;;;11.57;5.78;;;;;;;;;;5054133;28;20053;-64
2023/06/09 08:31:05;;;;;;;8.30;5.43;;;;;;;;;;5054449;28;20447;-64
2023/06/09 08:33:33;;;;;;;8.98;6.00;;;;;;;;;;5054152;28;20103;-64
2023/06/09 08:36:02;;;;;;;12.48;6.13;;;;;;;;;;5036545;28;20049;-64
2023/06/09 08:38:32;;;;;;;11.30;5.70;;;;;;;;;;5036109;28;20045;-64
2023/06/09 08:41:06;;;;;;;9.68;5.55;;;;;;;;;;5053998;28;20053;-64
2023/06/09 08:43:32;;;;;;;9.68;5.47;;;;;;;;;;5045807;28;20102;-65
2023/06/09 08:46:08;;;;;;;10.88;5.53;;;;;;;;;;5073056;28;20440;-64
2023/06/09 08:48:37;;;;;;;17.30;6.37;;;;;;;;;;5073730;28;20048;-64
2023/06/09 08:51:04;;;;;;;10.50;5.60;;;;;;;;;;5073758;28;20131;-65
2023/06/09 08:53:31;;;;;;;7.90;5.57;;;;;;;;;;5073735;28;20048;-64
2023/06/09 08:55:57;;;;;;;;;;;;;;;;;;5074132;28;20503;-65
2023/06/09 08:58:24;;;;;;;10.27;5.47;;;;;;;;;;5073667;28;19921;-64
2023/06/09 09:00:52;;;;;;;9.50;6.00;;;;;;;;;;5056107;28;20138;-65
2023/06/09 09:03:18;;;;;;;9.25;5.95;;;;;;;;;;5059863;28;20124;-64
2023/06/09 09:05:45;;;;;;;9.52;5.68;;;;;;;;;;5053429;28;20041;-64
2023/06/09 09:08:12;;;;;;;15.20;6.43;;;;;;;;;;5053326;28;20057;-64
2023/06/09 09:10:42;;;;;;;11.32;6.22;;;;;;;;;;5053425;28;20065;-64
2023/06/09 09:13:10;;;;;;;10.68;5.78;;;;;;;;;;5062361;28;20515;-62
2023/06/09 09:15:37;;;;;;;7.43;5.40;;;;;;;;;;5073342;28;20135;-64
2023/06/09 09:18:07;;;;;;;9.98;5.78;;;;;;;;;;5073283;28;20411;-64
2023/06/09 09:20:34;;;;;;;10.02;5.65;;;;;;;;;;5073399;28;20412;-63
2023/06/09 09:23:01;;;;;;;;;;;;;;;;;;5061468;28;20048;-64
2023/06/09 09:25:28;;;;;;;7.68;5.40;;;;;;;;;;5059126;28;20327;-63
2023/06/09 09:28:07;;;;;;;10.75;5.93;;;;;;;;;;5071074;28;20075;-64
2023/06/09 09:30:43;;;;;;;11.23;5.97;;;;;;;;;;5071262;28;20056;-65
2023/06/09 09:33:13;;;;;;;13.00;5.35;;;;;;;;;;5053280;28;20135;-64
2023/06/09 09:35:43;;;;;;;10.43;5.60;;;;;;;;;;5069536;28;20052;-64
2023/06/09 09:38:18;;;;;;;9.68;5.40;;;;;;;;;;5072959;28;20048;-65
2023/06/09 09:40:45;;;;;;;9.45;5.20;;;;;;;;;;5072789;28;20044;-64
2023/06/09 09:43:12;;;;;;;9.40;4.80;;;;;;;;;;5072527;28;20063;-64
2023/06/09 09:45:39;;;;;;;8.55;4.95;;;;;;;;;;5072667;28;20053;-64
2023/06/09 09:48:08;;;;;;;8.32;5.50;;;;;;;;;;5072866;28;20094;-64
2023/06/09 09:50:36;;;;;;;12.10;5.68;;;;;;;;;;5054867;28;20052;-65
2023/06/09 09:53:06;;;;;;;7.40;5.53;;;;;;;;;;5056431;28;20059;-64
2023/06/09 09:55:34;;;;;;;8.75;4.97;;;;;;;;;;5072308;28;20056;-64
2023/06/09 09:58:03;;;;;;;7.70;5.25;;;;;;;;;;5072610;28;20052;-64
2023/06/09 10:00:32;;;;;;;7.43;5.30;;;;;;;;;;5072680;28;20048;-64
2023/06/09 10:03:00;;;;;;;7.72;5.18;;;;;;;;;;5054888;28;20098;-65
2023/06/09 10:05:33;;;;;;;7.22;5.18;;;;;;;;;;5054769;28;20143;-64
2023/06/09 10:08:02;;;;;;;8.30;4.88;;;;;;;;;;5072489;28;20068;-64
2023/06/09 10:10:30;;;;;;;8.55;5.07;;;;;;;;;;5072134;28;20044;-65
2023/06/09 10:12:57;;;;;;;11.65;5.13;;;;;;;;;;5072496;28;20048;-65
2023/06/09 10:15:24;;;;;;;7.97;5.60;;;;;;;;;;5072428;28;20048;-64
2023/06/09 10:17:52;;;;;;;7.55;4.95;;;;;;;;;;5071904;28;20056;-65
2023/06/09 10:20:19;;;;;;;8.65;5.65;;;;;;;;;;5072102;28;20044;-65
2023/06/09 10:22:46;;;;;;;5.85;5.03;;;;;;;;;;5055060;28;20089;-64
2023/06/09 10:25:13;;;;;;;8.02;6.05;;;;;;;;;;5050543;28;20059;-65
2023/06/09 10:27:40;;;;;;;10.77;4.97;;;;;;;;;;5050697;28;20052;-64
2023/06/09 10:30:09;;;;;;;8.00;5.50;;;;;;;;;;5056105;28;20056;-64
2023/06/09 10:32:40;;;;;;;8.70;4.97;;;;;;;;;;5062313;28;20053;-64
2023/06/09 10:35:08;;;;;;;7.63;5.18;;;;;;;;;;5049123;28;20151;-65
2023/06/09 10:37:35;;;;;;;7.80;5.10;;;;;;;;;;5051278;28;20048;-64
2023/06/09 10:40:16;;;;;;;8.75;5.03;;;;;;;;;;5051615;28;20063;-64
2023/06/09 10:42:53;;;;;;;11.18;5.75;;;;;;;;;;5051271;28;20037;-64
2023/06/09 10:45:20;;;;;;;9.00;4.85;;;;;;;;;;5051551;28;20053;-64
2023/06/09 10:47:47;;;;;;;6.88;5.05;;;;;;;;;;5051594;28;20076;-64
2023/06/09 10:50:24;;;;;;;7.40;5.03;;;;;;;;;;5051439;28;20049;-64
2023/06/09 10:52:53;;;;;;;7.88;5.07;;;;;;;;;;5051509;28;20056;-65
2023/06/09 10:55:21;;;;;;;6.57;5.32;;;;;;;;;;5051385;28;20053;-65
2023/06/09 10:57:47;;;;;;;7.32;5.07;;;;;;;;;;5057339;28;20053;-66
2023/06/09 11:00:15;;;;;;;8.32;4.85;;;;;;;;;;5070480;28;20060;-65
2023/06/09 11:02:46;;;;;;;7.15;4.65;;;;;;;;;;5070843;28;20458;-66
2023/06/09 11:05:13;;;;;;;7.32;5.78;;;;;;;;;;5070541;28;20052;-65
2023/06/09 11:07:44;;;;;;;8.43;5.30;;;;;;;;;;5069894;28;20041;-66
2023/06/09 11:10:13;;;;;;;9.13;5.00;;;;;;;;;;5070953;28;20060;-66
2023/06/09 11:12:45;;;;;;;6.25;5.05;;;;;;;;;;5070447;28;20047;-65
2023/06/09 11:15:15;;;;;;;6.20;5.07;;;;;;;;;;5071185;28;20071;-66
2023/06/09 11:17:43;;;;;;;6.70;5.32;;;;;;;;;;5071154;28;20044;-66
2023/06/09 11:20:09;;;;;;;7.03;5.70;;;;;;;;;;5071492;28;20052;-66
2023/06/09 11:22:40;;;;;;;8.32;5.15;;;;;;;;;;5071638;28;20037;-66
2023/06/09 11:25:08;;;;;;;9.27;5.28;;;;;;;;;;5071274;28;20041;-66
2023/06/09 11:27:34;;;;;;;8.20;5.55;;;;;;;;;;5071546;28;20049;-66
2023/06/09 11:30:07;;;;;;;8.68;5.35;;;;;;;;;;5071267;28;20052;-65
2023/06/09 11:32:56;;;;;;;6.63;5.00;;;;;;;;;;5071320;28;20059;-66
2023/06/09 11:35:22;;;;;;;7.25;5.25;;;;;;;;;;5053347;28;20060;-66
2023/06/09 11:37:52;;;;;;;7.85;4.68;;;;;;;;;;5071089;28;20052;-66
2023/06/09 11:40:19;;;;;;;6.57;4.85;;;;;;;;;;5071409;28;20408;-66
2023/06/09 11:42:46;;;;;;;5.85;5.25;;;;;;;;;;5071170;28;20071;-66
2023/06/09 11:45:13;;;;;;;7.18;4.90;;;;;;;;;;5071178;28;20060;-66
2023/06/09 11:47:40;;;;;;;8.73;5.45;;;;;;;;;;5071187;28;20057;-66
2023/06/09 11:50:11;;;;;;;7.40;5.53;;;;;;;;;;5071112;28;20044;-66
2023/06/09 11:52:39;;;;;;;7.32;5.35;;;;;;;;;;5071133;28;20511;-66
2023/06/09 11:55:06;;;;;;;9.30;5.72;;;;;;;;;;5071206;28;20044;-66
2023/06/09 11:57:33;;;;;;;8.55;5.75;;;;;;;;;;5071128;28;20522;-66
2023/06/09 12:00:03;;;;;;;7.18;5.38;;;;;;;;;;5071216;28;20412;-66
2023/06/09 12:02:30;;;;;;;7.38;4.85;;;;;;;;;;5071596;28;20049;-66
2023/06/09 12:04:57;;;;;;;7.72;4.82;;;;;;;;;;5071139;28;20044;-66
2023/06/09 12:07:24;;;;;;;7.57;4.80;;;;;;;;;;5071202;28;20044;-66
2023/06/09 12:09:56;;;;;;;7.47;4.50;;;;;;;;;;5071285;28;20057;-66
2023/06/09 12:12:23;;;;;;;7.32;4.85;;;;;;;;;;5071081;28;20053;-66
2023/06/09 12:14:50;;;;;;;8.35;4.70;;;;;;;;;;5071087;28;20048;-66
2023/06/09 12:17:17;;;;;;;7.47;4.95;;;;;;;;;;5070659;28;20135;-66
2023/06/09 12:19:46;;;;;;;8.07;4.93;;;;;;;;;;5072438;28;20044;-66
2023/06/09 12:22:13;;;;;;;8.18;4.30;;;;;;;;;;5074614;28;20048;-67
2023/06/09 12:24:39;;;;;;;9.15;4.63;;;;;;;;;;5074329;28;20049;-66
2023/06/09 12:27:10;;;;;;;6.65;4.30;;;;;;;;;;5074386;28;20064;-66
2023/06/09 12:29:36;;;;;;;6.03;4.13;;;;;;;;;;5074161;28;20052;-66
2023/06/09 12:32:04;;;;;;;6.88;4.40;;;;;;;;;;5074570;28;20098;-66
2023/06/09 12:34:31;;;;;;;8.43;4.85;;;;;;;;;;5074268;28;20512;-66
2023/06/09 12:36:58;;;;;;;6.78;4.78;;;;;;;;;;5074081;28;20055;-66
2023/06/09 12:39:28;;;;;;;7.70;4.53;;;;;;;;;;5074025;28;20071;-66
2023/06/09 12:41:55;;;;;;;5.68;4.30;;;;;;;;;;5074095;28;20044;-67
2023/06/09 12:44:25;;;;;;;7.03;4.40;;;;;;;;;;5073900;28;20064;-64
2023/06/09 12:46:55;;;;;;;5.95;4.43;;;;;;;;;;5056151;28;20045;-64
2023/06/09 12:49:29;;;;;;;5.97;4.47;;;;;;;;;;5056817;28;20064;-64
2023/06/09 12:51:56;;;;;;;5.90;4.55;;;;;;;;;;5074195;28;20053;-64
2023/06/09 12:54:22;;;;;;;5.15;4.60;;;;;;;;;;5073749;28;20106;-64
2023/06/09 12:56:49;;;;;;;6.00;4.50;;;;;;;;;;5073674;28;20048;-64
2023/06/09 12:59:15;;;;;;;7.40;4.78;;;;;;;;;;5073813;28;20122;-64
2023/06/09 13:01:42;;;;;;;6.60;4.50;;;;;;;;;;5059734;28;21081;-64
2023/06/09 13:04:08;;;;;;;5.57;4.28;;;;;;;;;;5073601;28;20127;-64
2023/06/09 13:06:36;;;;;;;4.75;4.03;;;;;;;;;;5073460;28;20048;-64
2023/06/09 13:09:02;;;;;;;6.57;4.30;;;;;;;;;;5073473;28;20492;-64
2023/06/09 13:11:30;;;;;;;6.10;4.40;;;;;;;;;;5073672;28;20056;-64
2023/06/09 13:13:57;;;;;;;5.53;4.05;;;;;;;;;;5073259;28;20074;-64
2023/06/09 13:16:23;;;;;;;5.88;4.25;;;;;;;;;;5073356;28;20078;-64
2023/06/09 13:18:50;;;;;;;5.38;4.40;;;;;;;;;;5073193;28;20546;-64
2023/06/09 13:21:17;;;;;;;6.32;4.18;;;;;;;;;;5055752;28;20067;-64
2023/06/09 13:24:03;;;;;;;8.77;4.60;;;;;;;;;;5073454;28;20083;-64
2023/06/09 13:26:30;;;;;;;6.38;4.45;;;;;;;;;;5073103;28;20084;-65
2023/06/09 13:28:56;;;;;;;7.22;4.60;;;;;;;;;;5073348;28;20492;-64
2023/06/09 13:31:23;;;;;;;9.10;4.47;;;;;;;;;;5072549;28;20052;-64
2023/06/09 13:33:49;;;;;;;7.05;4.63;;;;;;;;;;5073053;28;20070;-64
2023/06/09 13:36:16;;;;;;;4.93;4.30;;;;;;;;;;5073118;28;20056;-64
2023/06/09 13:38:42;;;;;;;6.72;4.60;;;;;;;;;;5065419;28;20049;-62
2023/06/09 13:41:09;;;;;;;6.15;3.97;;;;;;;;;;5052981;28;20045;-62
2023/06/09 13:43:36;;;;;;;6.38;4.00;;;;;;;;;;5052256;28;20496;-62
2023/06/09 13:46:02;;;;;;;5.93;4.00;;;;;;;;;;5052604;28;20045;-62
2023/06/09 13:48:29;;;;;;;5.20;4.20;;;;;;;;;;5072652;28;20070;-62
2023/06/09 13:50:55;;;;;;;6.43;4.60;;;;;;;;;;5072671;28;20056;-64
2023/06/09 13:53:22;;;;;;;5.22;4.40;;;;;;;;;;5050108;28;20045;-64
2023/06/09 13:55:48;;;;;;;5.88;4.50;;;;;;;;;;5052838;28;20053;-63
2023/06/09 13:58:15;;;;;;;5.60;3.90;;;;;;;;;;5052317;28;20052;-63
2023/06/09 14:00:42;;;;;;;7.03;4.38;;;;;;;;;;5052700;28;20052;-63
2023/06/09 14:03:08;;;;;;;5.57;4.00;;;;;;;;;;5052349;28;20408;-63
2023/06/09 14:05:35;;;;;;;6.32;4.18;;;;;;;;;;5052252;28;20136;-62
2023/06/09 14:08:01;;;;;;;5.82;4.03;;;;;;;;;;5052502;28;20049;-62
2023/06/09 14:10:28;;;;;;;5.82;4.35;;;;;;;;;;5062667;28;20057;-63
2023/06/09 14:12:54;;;;;;;7.72;4.70;;;;;;;;;;5072068;28;20044;-63
2023/06/09 14:15:24;;;;;;;7.72;4.50;;;;;;;;;;5072004;28;20048;-63
2023/06/09 14:17:56;;;;;;;6.60;4.43;;;;;;;;;;5052025;28;20524;-66
2023/06/09 14:20:25;;;;;;;6.63;4.10;;;;;;;;;;5052723;28;20416;-65
2023/06/09 14:22:52;;;;;;;4.30;4.00;;;;;;;;;;5057717;28;20049;-66
2023/06/09 14:25:21;;;;;;;7.63;4.22;;;;;;;;;;5069544;28;20044;-65
2023/06/09 14:27:49;;;;;;;7.05;4.00;;;;;;;;;;5060340;28;20055;-65
2023/06/09 14:30:18;;;;;;;7.28;4.43;;;;;;;;;;5072088;28;20052;-64
2023/06/09 14:32:47;;;;;;;5.05;4.55;;;;;;;;;;5060893;28;20458;-65
2023/06/09 14:35:22;;;;;;;5.40;4.25;;;;;;;;;;5043488;28;20389;-65
2023/06/09 14:37:50;;;;;;;6.70;4.80;;;;;;;;;;5036662;28;20063;-65
2023/06/09 14:40:17;;;;;;;6.78;4.85;;;;;;;;;;5071984;28;20040;-65
2023/06/09 14:42:45;;;;;;;6.90;4.43;;;;;;;;;;5058153;28;20045;-66